Flight Track Log - Related Links

Times and Time Zones

All times are in EDT time to prevent confusion due to time zone crossing. See the SWA3247 flight status page for this flight to view local times or setup timezone preferences in your user account.

Time Position Orientation Groundspeed Altitude Reporting Facility
EDT Latitude Longitude Course Direction KTS MPH feet Rate Location/Type
Fri 09:05:34 PM 36.0772 -115.1731 268° West 163 188 3,200  Level Los Angeles Center
Fri 09:06:35 PM 36.0750 -115.2431 268° West 207 238 5,400 2,135 Climbing Los Angeles Center
Fri 09:07:18 PM 36.0936 -115.2822 300° West 231 266 6,900 2,538 Climbing Los Angeles Center
Fri 09:08:19 PM 36.1606 -115.2758 North 267 307 9,800 2,244 Climbing Los Angeles Center
Fri 09:09:21 PM 36.1956 -115.1619 69° East 314 361 11,500 2,177 Climbing Los Angeles Center
Fri 09:10:23 PM 36.1969 -115.0381 89° East 358 412 14,300 2,565 Climbing Los Angeles Center
Fri 09:11:25 PM 36.1983 -114.9075 89° East 376 433 16,800 2,468 Climbing Los Angeles Center
Fri 09:12:27 PM 36.1994 -114.7708 89° East 394 453 19,400 2,468 Climbing Los Angeles Center
Fri 09:13:29 PM 36.1972 -114.6256 91° East 417 480 21,900 2,274 Climbing Los Angeles Center
Fri 09:14:31 PM 36.1947 -114.4769 91° East 430 495 24,100 1,935 Climbing Los Angeles Center
Fri 09:15:33 PM 36.1939 -114.3222 90° East 447 514 25,900 1,839 Climbing Los Angeles Center
Fri 09:16:35 PM 36.2064 -114.1292 85° East 469 540 27,900 1,645 Climbing Los Angeles Center
Fri 09:17:37 PM 36.2267 -113.9622 81° East 487 560 29,300 1,317 Climbing Los Angeles Center
Fri 09:18:38 PM 36.2461 -113.7906 82° East 500 575 30,600 1,366 Climbing Los Angeles Center
Fri 09:19:40 PM 36.2675 -113.6131 81° East 516 594 32,100 1,597 Climbing Los Angeles Center
Fri 09:20:42 PM 36.2878 -113.4372 82° East 517 595 33,900 1,597 Climbing Los Angeles Center
Fri 09:21:44 PM 36.3081 -113.2619 82° East 515 593 35,400 1,403 Climbing Los Angeles Center
Fri 09:22:46 PM 36.3589 -113.0906 70° East 511 588 36,800 774 Climbing Los Angeles Center
Fri 09:23:48 PM 36.4261 -112.8967 67° East 511 588 37,000 97 Climbing Los Angeles Center
Fri 09:24:50 PM 36.4811 -112.7353 67° East 510 587 37,000  Level Los Angeles Center
Fri 09:25:52 PM 36.5353 -112.5742 67° East 508 585 37,000  Level Los Angeles Center
Fri 09:26:53 PM 36.5900 -112.4136 67° East 506 582 37,000  Level Los Angeles Center
Fri 09:27:55 PM 36.6433 -112.2533 67° East 504 580 37,000  Level Los Angeles Center
Fri 09:28:57 PM 36.6975 -112.0922 67° East 506 582 37,000  Level Los Angeles Center
Fri 09:29:59 PM 36.7606 -111.9000 68° East 503 579 37,000  Level Los Angeles Center
Fri 09:31:01 PM 36.8133 -111.7406 67° East 502 578 37,000  Level Los Angeles Center
Fri 09:32:03 PM 36.8656 -111.5797 68° East 502 578 37,000  Level Los Angeles Center
Fri 09:32:33 PM 36.8858 -111.5164 68° East 503 579 37,000  Level Denver Center
Fri 09:33:35 PM 36.9486 -111.3228 68° East 503 579 37,000  Level Denver Center
Fri 09:34:36 PM 37.0011 -111.1600 68° East 506 582 37,000  Level Denver Center
Fri 09:35:38 PM 37.0531 -110.9961 68° East 510 587 37,000  Level Denver Center
Fri 09:36:52 PM 37.1061 -110.8342 68° East 504 580 37,000  Level Denver Center
Fri 09:37:54 PM 37.1575 -110.6711 68° East 505 581 37,000  Level Denver Center
Fri 09:39:08 PM 37.2186 -110.4769 68° East 501 577 37,000  Level Denver Center
Fri 09:40:10 PM 37.2903 -110.2500 68° East 501 577 37,000  Level Denver Center
Fri 09:41:12 PM 37.3389 -110.0917 69° East 497 572 37,000  Level Denver Center
Fri 09:42:15 PM 37.3872 -109.9364 69° East 497 572 37,000  Level Denver Center
Fri 09:43:16 PM 37.4350 -109.7803 69° East 496 571 37,000  Level Denver Center
Fri 09:44:18 PM 37.4906 -109.5981 69° East 498 573 37,000  Level Denver Center
Fri 09:45:32 PM 37.5458 -109.4161 69° East 497 572 37,000  Level Denver Center
Fri 09:46:34 PM 37.6008 -109.2347 69° East 495 570 37,000  Level Denver Center
Fri 09:47:36 PM 37.6547 -109.0533 69° East 494 568 37,000  Level Denver Center
Fri 09:48:38 PM 37.7011 -108.8967 69° East 496 571 37,000  Level Denver Center
Fri 09:49:40 PM 37.7558 -108.7125 69° East 500 575 37,000  Level Denver Center
Fri 09:50:42 PM 37.8014 -108.5564 70° East 496 571 37,000  Level Denver Center
Fri 09:51:44 PM 37.8550 -108.3750 69° East 492 566 37,000  Level Denver Center
Fri 09:52:46 PM 37.9006 -108.2178 70° East 496 571 37,000  Level Denver Center
Fri 09:53:48 PM 37.9464 -108.0606 70° East 498 573 37,000  Level Denver Center
Fri 09:54:50 PM 37.9994 -107.8753 70° East 498 573 37,000  Level Denver Center
Fri 09:55:52 PM 38.0433 -107.7192 70° East 491 565 37,000  Level Denver Center
Fri 09:56:54 PM 38.0972 -107.5314 70° East 493 567 37,000  Level Denver Center
Fri 09:57:56 PM 38.1411 -107.3714 71° East 500 575 37,000  Level Denver Center
Fri 09:58:58 PM 38.1928 -107.1869 70° East 497 572 37,000  Level Denver Center
Fri 10:00:00 PM 38.2333 -107.0411 70° East 502 578 37,000  Level Denver Center
Fri 10:01:02 PM 38.2886 -106.8397 71° East 503 579 37,000  Level Denver Center
Fri 10:02:04 PM 38.3328 -106.6789 71° East 503 579 37,000  Level Denver Center
Fri 10:03:06 PM 38.3808 -106.5039 71° East 506 582 37,000  Level Denver Center
Fri 10:04:08 PM 38.4264 -106.3356 71° East 506 582 37,000  Level Denver Center
Fri 10:05:10 PM 38.4739 -106.1569 71° East 503 579 37,000  Level Denver Center
Fri 10:06:12 PM 38.5183 -105.9919 71° East 510 587 37,000  Level Denver Center
Fri 10:07:26 PM 38.5753 -105.7742 71° East 507 583 37,000  Level Denver Center
Fri 10:08:28 PM 38.6194 -105.6075 71° East 500 575 37,000  Level Denver Center
Fri 10:09:30 PM 38.6622 -105.4400 72° East 498 573 37,000  Level Denver Center
Fri 10:10:32 PM 38.7153 -105.2375 71° East 501 577 37,000  Level Denver Center
Fri 10:11:34 PM 38.7586 -105.0689 72° East 502 578 37,000  Level Denver Center
Fri 10:12:36 PM 38.8028 -104.9011 71° East 500 575 37,000  Level Denver Center
Fri 10:13:37 PM 38.8367 -104.7667 72° East 500 575 37,000  Level Denver Center
Fri 10:14:40 PM 38.8878 -104.5644 72° East 500 575 37,000  Level Denver Center
Fri 10:15:42 PM 38.9369 -104.3650 72° East 494 568 37,000  Level Denver Center
Fri 10:16:44 PM 38.9781 -104.1981 72° East 494 568 37,000  Level Denver Center
Fri 10:17:46 PM 39.0203 -104.0308 72° East 495 570 37,000  Level Denver Center
Fri 10:18:47 PM 39.0522 -103.8989 73° East 490 564 37,000  Level Denver Center
Fri 10:19:49 PM 39.1011 -103.7006 72° East 486 559 37,000  Level Denver Center
Fri 10:20:51 PM 39.1394 -103.5406 73° East 474 545 37,000  Level Denver Center
Fri 10:21:53 PM 39.1853 -103.3503 73° East 466 536 37,000  Level Denver Center
Fri 10:22:55 PM 39.2236 -103.1919 73° East 466 536 37,000  Level Denver Center
Fri 10:23:57 PM 39.2600 -103.0347 73° East 461 531 37,000  Level Denver Center
Fri 10:24:59 PM 39.2969 -102.8764 73° East 462 532 37,000  Level Denver Center
Fri 10:26:01 PM 39.3386 -102.6967 73° East 457 526 37,000  Level Denver Center
Fri 10:27:02 PM 39.3692 -102.5647 73° East 453 521 37,000  Level Denver Center
Fri 10:28:04 PM 39.4119 -102.3819 73° East 447 514 37,000  Level Denver Center
Fri 10:29:06 PM 39.4442 -102.2442 73° East 447 514 37,000  Level Denver Center
Fri 10:30:08 PM 39.4825 -102.0742 74° East 444 511 37,000  Level Denver Center
Fri 10:31:10 PM 39.5136 -101.9267 75° East 444 511 37,000  Level Denver Center
Fri 10:32:11 PM 39.5522 -101.7586 73° East 437 503 37,000  Level Denver Center
Fri 10:33:13 PM 39.5842 -101.6147 74° East 434 499 37,000  Level Denver Center
Fri 10:34:15 PM 39.6208 -101.4472 74° East 435 501 37,000  Level Denver Center
Fri 10:35:17 PM 39.6525 -101.3056 74° East 430 495 37,000  Level Denver Center
Fri 10:36:19 PM 39.6886 -101.1375 74° East 434 499 37,000  Level Denver Center
Fri 10:37:20 PM 39.7192 -100.9944 74° East 433 498 37,000  Level Denver Center
Fri 10:38:22 PM 39.7550 -100.8267 74° East 433 498 37,000  Level Denver Center
Fri 10:39:24 PM 39.7858 -100.6836 74° East 432 497 37,000  Level Denver Center
Fri 10:40:25 PM 39.8164 -100.5378 75° East 437 503 37,000  Level Denver Center
Fri 10:41:27 PM 39.8519 -100.3675 75° East 438 504 37,000  Level Denver Center
Fri 10:42:29 PM 39.8844 -100.2092 75° East 448 516 37,000  Level Denver Center
Fri 10:43:30 PM 39.9106 -100.0869 74° East 443 510 37,000  Level Denver Center
Fri 10:44:32 PM 39.9489 -99.8983 75° East 448 516 37,000  Level Denver Center
Fri 10:45:34 PM 39.9803 -99.7433 75° East 445 512 37,000  Level Denver Center
Fri 10:46:35 PM 40.0119 -99.5875 75° East 445 512 37,000  Level Denver Center
Fri 10:47:37 PM 40.0497 -99.3989 75° East 447 514 37,000  Level Denver Center
Fri 10:48:39 PM 40.0800 -99.2433 76° East 445 512 37,000  Level Denver Center
Fri 10:49:40 PM 40.1119 -99.0867 75° East 447 514 37,000  Level Denver Center
Fri 10:50:42 PM 40.1422 -98.9297 76° East 447 514 37,000  Level Denver Center
Fri 10:51:43 PM 40.1728 -98.7736 76° East 446 513 37,000  Level Denver Center
Fri 10:52:57 PM 40.2092 -98.5822 76° East 451 519 37,000  Level Denver Center
Fri 10:54:08 PM 40.2453 -98.3922 76° East 452 520 37,000  Level Minneapolis Center
Fri 10:55:09 PM 40.2753 -98.2308 76° East 454 522 37,000  Level Minneapolis Center
Fri 10:56:11 PM 40.3044 -98.0711 76° East 455 524 37,000  Level Minneapolis Center
Fri 10:57:24 PM 40.3411 -97.8769 76° East 456 525 37,000  Level Minneapolis Center
Fri 10:58:25 PM 40.3775 -97.6811 76° East 459 528 37,000  Level Minneapolis Center
Fri 10:59:26 PM 40.4064 -97.5156 77° East 463 533 37,000  Level Minneapolis Center
Fri 11:00:28 PM 40.4369 -97.3522 76° East 463 533 37,000  Level Minneapolis Center
Fri 11:01:29 PM 40.4664 -97.1864 77° East 465 535 37,000  Level Minneapolis Center
Fri 11:02:30 PM 40.4956 -97.0236 77° East 463 533 37,000  Level Minneapolis Center
Fri 11:03:31 PM 40.5244 -96.8594 77° East 462 532 37,000  Level Minneapolis Center
Fri 11:05:33 PM 40.5833 -96.5300 77° East 465 535 37,000  Level Minneapolis Center
Fri 11:06:35 PM 40.6106 -96.3664 78° East 462 532 37,000  Level Minneapolis Center
Fri 11:07:36 PM 40.6439 -96.1692 77° East 461 531 37,000  Level Minneapolis Center
Fri 11:08:37 PM 40.6706 -96.0028 78° East 464 534 37,000  Level Minneapolis Center
Fri 11:09:38 PM 40.6994 -95.8367 77° East 466 536 37,000  Level Minneapolis Center
Fri 11:10:39 PM 40.7269 -95.6683 78° East 469 540 37,000  Level Minneapolis Center
Fri 11:11:40 PM 40.7483 -95.5142 80° East 466 536 37,000  Level Minneapolis Center
Fri 11:12:42 PM 40.7739 -95.3483 78° East 466 536 37,000  Level Minneapolis Center
Fri 11:13:43 PM 40.8031 -95.1808 77° East 469 540 37,000  Level Minneapolis Center
Fri 11:14:44 PM 40.8353 -94.9800 78° East 470 541 37,000  Level Minneapolis Center
Fri 11:15:45 PM 40.8592 -94.8139 79° East 468 539 37,000  Level Minneapolis Center
Fri 11:16:46 PM 40.8894 -94.6450 77° East 472 543 37,000  Level Minneapolis Center
Fri 11:17:47 PM 40.9153 -94.4786 78° East 468 539 37,000  Level Minneapolis Center
Fri 11:18:50 PM 40.9381 -94.3125 80° East 466 536 37,000  Level Minneapolis Center
Fri 11:19:51 PM 40.9633 -94.1447 79° East 466 536 37,000  Level Minneapolis Center
Fri 11:20:52 PM 40.9881 -93.9781 79° East 466 536 37,000  Level Minneapolis Center
Fri 11:21:53 PM 41.0181 -93.7786 79° East 465 535 37,000  Level Minneapolis Center
Fri 11:22:54 PM 41.0425 -93.6128 79° East 463 533 37,000  Level Minneapolis Center
Fri 11:23:55 PM 41.0664 -93.4469 79° East 461 531 37,000  Level Minneapolis Center
Fri 11:24:56 PM 41.0903 -93.2817 79° East 461 531 37,000  Level Minneapolis Center
Fri 11:25:57 PM 41.1136 -93.1150 79° East 461 531 37,000  Level Minneapolis Center
Fri 11:26:58 PM 41.1375 -92.9492 79° East 461 531 37,000  Level Minneapolis Center
Fri 11:27:59 PM 41.1594 -92.7833 80° East 458 527 37,000  Level Minneapolis Center
Fri 11:29:00 PM 41.1822 -92.6181 80° East 458 527 37,000 541 Level Minneapolis Center
Fri 11:30:01 PM 41.2056 -92.4464 80° East 467 537 38,100 984 Climbing Minneapolis Center
Fri 11:31:02 PM 41.2283 -92.2750 80° East 473 544 39,000 443 Climbing Minneapolis Center
Fri 11:32:03 PM 41.2494 -92.1094 80° East 464 534 39,000  Level Minneapolis Center
Fri 11:33:04 PM 41.2742 -91.9131 80° East 455 524 39,000  Level Minneapolis Center
Fri 11:34:05 PM 41.2947 -91.7583 80° East 456 525 39,000  Level Minneapolis Center
Fri 11:35:22 PM 41.3192 -91.5628 80° East 453 521 39,000  Level Chicago Center
Fri 11:36:23 PM 41.3436 -91.3658 81° East 454 522 39,000  Level Chicago Center
Fri 11:37:24 PM 41.3617 -91.2236 80° East 452 520 39,000  Level Chicago Center
Fri 11:38:25 PM 41.3825 -91.0586 80° East 451 519 39,000  Level Chicago Center
Fri 11:39:26 PM 41.4017 -90.8939 81° East 450 518 39,000  Level Chicago Center
Fri 11:40:27 PM 41.4217 -90.7281 81° East 451 519 39,000  Level Chicago Center
Fri 11:41:28 PM 41.4444 -90.5311 81° East 448 516 39,000  Level Chicago Center
Fri 11:42:29 PM 41.4642 -90.3653 81° East 450 518 39,000  Level Chicago Center
Fri 11:43:30 PM 41.4828 -90.1997 81° East 450 518 39,000  Level Chicago Center
Fri 11:44:31 PM 41.5008 -90.0394 81° East 442 509 39,000  Level Chicago Center
Fri 11:45:32 PM 41.5189 -89.8764 82° East 441 507 39,000  Level Chicago Center
Fri 11:46:33 PM 41.5364 -89.7128 82° East 442 509 39,000  Level Chicago Center
Fri 11:47:34 PM 41.5550 -89.5489 81° East 443 510 39,000  Level Chicago Center
Fri 11:48:35 PM 41.5703 -89.3967 82° East 443 510 39,000  Level Chicago Center
Fri 11:49:35 PM 41.5889 -89.2333 81° East 447 514 39,000  Level Chicago Center
Fri 11:50:36 PM 41.6022 -89.0714 84° East 442 509 39,000  Level Chicago Center
Fri 11:51:37 PM 41.6236 -88.8739 82° East 448 516 39,000  Level Chicago Center
Fri 11:52:38 PM 41.6414 -88.7042 82° East 460 529 39,000  Level Chicago Center
Fri 11:53:39 PM 41.6581 -88.5375 82° East 457 526 39,000  Level Chicago Center
Fri 11:54:40 PM 41.6747 -88.3689 82° East 457 526 39,000  Level Chicago Center
Fri 11:55:41 PM 41.6908 -88.2008 83° East 455 524 39,000  Level Chicago Center
Fri 11:56:42 PM 41.7069 -88.0303 83° East 460 529 39,000  Level Chicago Center
Fri 11:57:43 PM 41.7219 -87.8600 83° East 459 528 39,000  Level Chicago Center
Fri 11:58:44 PM 41.7361 -87.6908 84° East 457 526 39,000  Level Chicago Center
Fri 11:59:45 PM 41.7517 -87.5208 83° East 460 529 39,000  Level Chicago Center
Sat 12:00:47 AM 41.7672 -87.3514 83° East 461 531 39,000  Level Chicago Center
Sat 12:01:48 AM 41.7817 -87.1822 83° East 460 529 39,000  Level Chicago Center
Sat 12:02:49 AM 41.7983 -86.9833 84° East 454 522 39,000  Level Chicago Center
Sat 12:03:49 AM 41.8119 -86.8181 84° East 448 516 39,000  Level Chicago Center
Sat 12:04:50 AM 41.8247 -86.6656 84° East 446 513 39,000  Level Chicago Center
Sat 12:05:51 AM 41.8375 -86.5003 84° East 447 514 39,000  Level Chicago Center
Sat 12:06:52 AM 41.8500 -86.3358 84° East 444 511 39,000  Level Chicago Center
Sat 12:07:54 AM 41.8639 -86.1711 83° East 444 511 39,000  Level Chicago Center
Sat 12:08:54 AM 41.8758 -86.0078 84° East 442 509 39,000  Level Chicago Center
Sat 12:09:54 AM 41.8889 -85.8436 84° East 441 507 39,000  Level Chicago Center
Sat 12:10:55 AM 41.9017 -85.6789 84° East 442 509 39,000  Level Chicago Center
Sat 12:11:56 AM 41.9156 -85.5136 84° East 442 509 39,000  Level Chicago Center
Sat 12:12:57 AM 41.9264 -85.3489 85° East 438 504 39,000  Level Chicago Center
Sat 12:13:58 AM 41.9367 -85.1858 85° East 440 506 39,000  Level Chicago Center
Sat 12:14:58 AM 41.9481 -85.0231 85° East 439 505 39,000  Level Chicago Center
Sat 12:15:59 AM 41.9583 -84.8594 85° East 440 506 39,000  Level Chicago Center
Sat 12:17:00 AM 41.9706 -84.6967 84° East 439 505 39,000  Level Chicago Center
Sat 12:18:01 AM 41.9922 -84.5278 80° East 440 506 39,000  Level Chicago Center
Sat 12:19:01 AM 42.0106 -84.3650 81° East 442 509 39,000  Level Chicago Center
Sat 12:20:02 AM 42.0306 -84.2031 81° East 441 507 39,000  Level Chicago Center
Sat 12:21:03 AM 42.0481 -84.0411 82° East 439 505 39,000  Level Chicago Center
Sat 12:22:04 AM 42.0703 -83.8458 81° East 442 509 39,000  Level Chicago Center
Sat 12:23:04 AM 42.0889 -83.6822 81° East 442 509 39,000  Level Chicago Center
Sat 12:24:22 AM 42.1089 -83.4856 82° East 444 511 39,000  Level Cleveland Center
Sat 12:25:22 AM 42.1253 -83.3186 82° East 444 511 39,000  Level Cleveland Center
Sat 12:26:22 AM 42.1419 -83.1456 83° East 450 518 39,000  Level Cleveland Center
Sat 12:27:22 AM 42.1619 -82.9839 80° East 450 518 39,000  Level Cleveland Center
Sat 12:28:22 AM 42.1781 -82.8164 83° East 445 512 39,000  Level Cleveland Center
Sat 12:29:22 AM 42.1958 -82.6458 82° East 445 512 39,000  Level Cleveland Center
Sat 12:30:22 AM 42.2131 -82.4811 82° East 445 512 39,000  Level Cleveland Center
Sat 12:31:22 AM 42.2283 -82.3161 83° East 445 512 39,000  Level Cleveland Center
Sat 12:32:22 AM 42.2472 -82.1483 81° East 445 512 39,000  Level Cleveland Center
Sat 12:33:22 AM 42.2664 -81.9664 82° East 445 512 39,000  Level Cleveland Center
Sat 12:34:22 AM 42.2808 -81.7983 83° East 450 518 39,000  Level Cleveland Center
Sat 12:35:22 AM 42.2950 -81.6331 83° East 444 511 39,000  Level Cleveland Center
Sat 12:36:22 AM 42.3108 -81.4817 82° East 450 518 39,000  Level Cleveland Center
Sat 12:37:22 AM 42.3267 -81.3133 83° East 450 518 39,000  Level Cleveland Center
Sat 12:38:22 AM 42.3400 -81.1478 84° East 445 512 39,000  Level Cleveland Center
Sat 12:39:22 AM 42.3553 -80.9794 83° East 445 512 39,000  Level Cleveland Center
Sat 12:40:22 AM 42.3703 -80.8136 83° East 445 512 39,000  Level Cleveland Center
Sat 12:41:22 AM 42.3831 -80.6422 84° East 445 512 39,000  Level Cleveland Center
Sat 12:42:22 AM 42.3975 -80.4567 84° East 450 518 39,000  Level Cleveland Center
Sat 12:43:22 AM 42.4119 -80.2878 83° East 456 525 39,000  Level Cleveland Center
Sat 12:44:22 AM 42.4258 -80.1164 84° East 462 532 39,000  Level Cleveland Center
Sat 12:45:22 AM 42.4397 -79.9614 83° East 467 537 39,000  Level Cleveland Center
Sat 12:46:22 AM 42.4514 -79.7925 85° East 456 525 39,000  Level Cleveland Center
Sat 12:47:22 AM 42.4706 -79.6036 82° East 462 532 39,000  Level Cleveland Center
Sat 12:48:22 AM 42.4794 -79.4317 86° East 462 532 39,000  Level Cleveland Center
Sat 12:49:22 AM 42.4903 -79.2625 85° East 462 532 39,000  Level Cleveland Center
Sat 12:50:22 AM 42.5047 -79.0933 83° East 462 532 39,000  Level Cleveland Center
Sat 12:51:22 AM 42.5172 -78.9242 84° East 462 532 39,000  Level Cleveland Center
Sat 12:52:22 AM 42.5269 -78.7492 86° East 462 532 39,000  Level Cleveland Center
Sat 12:53:22 AM 42.5367 -78.5797 85° East 462 532 39,000  Level Cleveland Center
Sat 12:54:22 AM 42.5500 -78.4044 84° East 462 532 39,000  Level Cleveland Center
Sat 12:55:22 AM 42.5614 -78.2350 85° East 462 532 39,000  Level Cleveland Center
Sat 12:56:22 AM 42.5703 -78.0597 86° East 462 532 39,000  Level Cleveland Center
Sat 12:57:22 AM 42.5789 -77.8903 86° East 462 532 39,000  Level Cleveland Center
Sat 12:58:22 AM 42.5914 -77.7150 84° East 462 532 39,000  Level Cleveland Center
Sat 12:59:22 AM 42.5972 -77.5397 87° East 462 532 39,000  Level Cleveland Center
Sat 01:00:22 AM 42.6075 -77.3756 85° East 477 549 39,000  Level Cleveland Center
Sat 01:01:22 AM 42.6169 -77.2028 86° East 477 549 39,000  Level Cleveland Center
Sat 01:02:22 AM 42.6264 -77.0275 86° East 471 542 39,000  Level Cleveland Center
Sat 01:03:22 AM 42.6356 -76.8519 86° East 461 531 39,000  Level Cleveland Center
Sat 01:05:00 AM 42.6443 -76.5761 85° East  Level FlightAware Approximate
Sat 01:12:00 AM 42.6965 -75.3948 80° East  Level FlightAware Approximate
Sat 01:13:00 AM 42.7051 -75.2261 87° East  Level FlightAware Approximate
Sat 01:14:00 AM 42.7109 -75.0569 87° East  Level FlightAware Approximate
Sat 01:15:00 AM 42.7165 -74.8877 87° East  Level FlightAware Approximate
Sat 01:16:00 AM 42.7167 -74.7183 90° East  Level FlightAware Approximate
Sat 01:17:00 AM 42.7168 -74.5489 83° East  Level FlightAware Approximate
Sat 01:18:00 AM 42.7308 -74.3805 83° East  Level FlightAware Approximate
Sat 01:19:00 AM 42.7333 -74.2113 90° East  Level FlightAware Approximate
Sat 01:20:00 AM 42.7333 -74.0418 90° East  Level FlightAware Approximate
Sat 01:21:00 AM 42.7333 -73.8724 90° East  Level FlightAware Approximate
Sat 01:22:00 AM 42.7333 -73.8000 90° East  Level FlightAware Approximate
Sat 01:23:00 AM 42.7491 -73.8020 90° East  Level Estimated
Sat 01:24:00 AM 42.7491 -73.8020 90° East  Level Estimated
Sat 01:25:00 AM 42.7491 -73.8020 90° East  Level Estimated
Sat 01:26:00 AM 42.7491 -73.8020 90° East  Level Estimated
Sat 01:27:00 AM 42.7491 -73.8020 90° East  Level Estimated
Sat 01:28:00 AM 42.7491 -73.8020 90° East  Level Estimated
Sat 01:29:00 AM 42.7491 -73.8020 90° East  Level Estimated
Sat 01:30:00 AM 42.7491 -73.8020 90° East  Level Estimated
Sat 01:31:00 AM 42.7491 -73.8020 90° East  Level Estimated
Sat 01:32:00 AM 42.7491 -73.8020 90° East  Level Estimated
Sat 01:33:00 AM 42.7491 -73.8020 90° East  Level Estimated
Sat 01:34:00 AM 42.7491 -73.8020 90° East  Level Estimated
Sat 01:35:00 AM 42.7491 -73.8020 90° East  Level Estimated
Sat 01:36:00 AM 42.7491 -73.8020 90° East  Level Estimated

Login

Don't have an account? Register now (free) for customized features, flight alerts, and more!